Time;durP1;ratioP1;P1;durP2;ratioP2;P2;SDS_P1;SDS_P2;PMS_P1;PMS_P2;Temp;Humidity;BMP_temperature;BMP_pressure;BME280_temperature;BME280_humidity;BME280_pressure;Samples;Min_cycle;Max_cycle;Signal;HPM_P1;HPM_P2
2022/04/22 00:01:06;;;;;;;10.70;5.78;;;9.20;99.90;;;;;;5073114;28;20518;-68
2022/04/22 00:03:33;;;;;;;11.35;5.85;;;9.20;99.90;;;;;;5088861;28;20044;-68
2022/04/22 00:06:01;;;;;;;14.48;6.32;;;9.20;99.90;;;;;;5067798;28;20041;-68
2022/04/22 00:08:28;;;;;;;8.65;5.22;;;9.20;99.90;;;;;;5064493;28;20049;-68
2022/04/22 00:13:40;;;;;;;13.02;6.22;;;9.10;99.90;;;;;;5067610;28;20581;-68
2022/04/22 00:16:07;;;;;;;9.07;5.30;;;9.10;99.90;;;;;;5053027;28;20380;-68
2022/04/22 00:18:34;;;;;;;12.45;5.35;;;9.10;99.90;;;;;;5059742;28;20083;-68
2022/04/22 00:21:01;;;;;;;8.35;4.88;;;9.10;99.90;;;;;;5073496;28;20049;-68
2022/04/22 00:23:28;;;;;;;7.90;5.43;;;9.10;99.90;;;;;;5073077;28;20059;-68
2022/04/22 00:25:55;;;;;;;10.05;4.97;;;9.10;99.90;;;;;;5061079;28;20056;-68
2022/04/22 00:28:23;;;;;;;11.00;5.75;;;9.10;99.90;;;;;;5064922;28;20060;-68
2022/04/22 00:30:50;;;;;;;14.35;6.80;;;9.00;99.90;;;;;;5056746;28;20049;-68
2022/04/22 00:33:17;;;;;;;14.02;5.60;;;9.00;99.90;;;;;;5069147;28;20064;-68
2022/04/22 00:35:44;;;;;;;14.80;6.18;;;9.10;99.90;;;;;;5068166;28;20049;-68
2022/04/22 00:38:11;;;;;;;14.43;5.30;;;9.10;99.90;;;;;;5057657;28;20048;-67
2022/04/22 00:40:38;;;;;;;9.88;5.10;;;9.10;99.90;;;;;;5063278;28;20041;-68
2022/04/22 00:43:22;;;;;;;9.40;5.90;;;9.10;99.90;;;;;;5084631;28;20045;-68
2022/04/22 00:45:49;;;;;;;14.70;8.20;;;9.00;99.90;;;;;;5071437;28;20404;-68
2022/04/22 00:48:16;;;;;;;14.00;6.47;;;9.00;99.90;;;;;;5063095;28;20060;-69
2022/04/22 00:50:43;;;;;;;10.90;5.75;;;9.10;99.90;;;;;;5062535;28;20049;-68
2022/04/22 00:53:10;;;;;;;11.77;6.38;;;9.10;99.90;;;;;;5069034;28;20053;-68
2022/04/22 00:55:42;;;;;;;11.65;6.40;;;9.00;99.90;;;;;;5076741;28;20052;-68
2022/04/22 00:58:09;;;;;;;14.30;7.75;;;9.10;99.90;;;;;;5063483;28;20044;-68
2022/04/22 01:00:36;;;;;;;17.42;6.75;;;9.10;99.90;;;;;;5054401;28;20061;-69
2022/04/22 01:03:05;;;;;;;11.68;7.13;;;9.10;99.90;;;;;;5054664;28;20040;-68
2022/04/22 01:11:03;;;;;;;10.20;6.93;;;9.10;99.90;;;;;;5071075;28;20503;-68
2022/04/22 01:13:30;;;;;;;13.40;7.45;;;9.10;99.90;;;;;;5070700;28;20044;-68
2022/04/22 01:15:57;;;;;;;13.60;6.68;;;9.10;99.90;;;;;;5079230;28;20087;-68
2022/04/22 01:18:24;;;;;;;17.90;7.40;;;9.10;99.90;;;;;;5065744;28;20074;-68
2022/04/22 01:20:50;;;;;;;14.88;8.05;;;9.10;99.90;;;;;;5071465;28;20049;-68
2022/04/22 01:23:17;;;;;;;13.82;7.18;;;9.20;99.90;;;;;;5064883;28;20719;-68
2022/04/22 01:25:44;;;;;;;13.77;7.03;;;9.20;99.90;;;;;;5060592;28;20048;-68
2022/04/22 01:28:11;;;;;;;16.90;7.80;;;9.20;99.90;;;;;;5064514;28;20049;-68
2022/04/22 01:30:38;;;;;;;18.60;7.85;;;9.20;99.90;;;;;;5068062;28;20068;-68
2022/04/22 01:33:05;;;;;;;10.35;6.88;;;9.30;99.90;;;;;;5061324;28;20530;-68
2022/04/22 01:35:32;;;;;;;11.40;7.65;;;9.20;99.90;;;;;;5064867;28;20560;-68
2022/04/22 01:37:58;;;;;;;13.10;6.70;;;9.30;99.90;;;;;;5071365;28;20458;-68
2022/04/22 01:40:25;;;;;;;13.98;8.68;;;9.30;99.90;;;;;;5065346;28;20044;-68
2022/04/22 01:42:53;;;;;;;13.95;8.00;;;9.30;99.90;;;;;;5064096;28;20106;-67
2022/04/22 01:45:20;;;;;;;17.45;8.43;;;9.30;99.90;;;;;;5069201;28;20423;-68
2022/04/22 01:47:47;;;;;;;16.25;8.77;;;9.40;99.90;;;;;;5072277;28;20547;-68
2022/04/22 01:50:14;;;;;;;14.10;7.43;;;9.40;99.90;;;;;;5070282;28;20044;-67
2022/04/22 01:52:41;;;;;;;17.65;7.88;;;9.40;99.90;;;;;;5051295;28;20131;-68
2022/04/22 01:55:08;;;;;;;10.95;8.50;;;9.40;99.90;;;;;;5079903;28;20043;-68
2022/04/22 01:57:35;;;;;;;14.27;8.00;;;9.40;99.90;;;;;;5074997;28;20118;-68
2022/04/22 02:00:03;;;;;;;12.07;8.18;;;9.40;99.90;;;;;;5075523;28;20048;-69
2022/04/22 02:02:30;;;;;;;13.10;8.35;;;9.40;99.90;;;;;;5058098;28;20049;-69
2022/04/22 02:04:57;;;;;;;15.30;8.27;;;9.50;99.90;;;;;;5058181;28;20041;-68
2022/04/22 02:07:24;;;;;;;14.27;8.75;;;9.40;99.90;;;;;;5055990;28;20045;-68
2022/04/22 02:09:51;;;;;;;13.13;8.48;;;9.50;99.90;;;;;;5067636;28;20052;-68
2022/04/22 02:12:17;;;;;;;15.85;9.75;;;9.40;99.90;;;;;;5067181;28;20140;-68
2022/04/22 02:14:44;;;;;;;19.98;9.00;;;9.40;99.90;;;;;;5058235;28;20068;-68
2022/04/22 02:17:11;;;;;;;22.88;9.40;;;9.40;99.90;;;;;;5067740;28;20075;-68
2022/04/22 02:19:40;;;;;;;16.83;8.80;;;9.40;99.90;;;;;;5065915;28;20044;-68
2022/04/22 02:22:07;;;;;;;16.15;9.30;;;9.30;99.90;;;;;;5066517;28;20040;-67
2022/04/22 02:24:34;;;;;;;16.67;9.68;;;9.30;99.90;;;;;;5062709;28;20102;-68
2022/04/22 02:29:46;;;;;;;13.73;8.52;;;9.20;99.90;;;;;;5067052;28;20052;-68
2022/04/22 02:32:13;;;;;;;15.88;9.98;;;9.20;99.90;;;;;;5065176;28;20095;-68
2022/04/22 02:34:40;;;;;;;15.75;9.65;;;9.20;99.90;;;;;;5067959;28;20055;-68
2022/04/22 02:37:07;;;;;;;16.33;9.35;;;9.10;99.90;;;;;;5055457;28;20064;-69
2022/04/22 02:39:34;;;;;;;17.77;10.77;;;9.10;99.90;;;;;;5071612;28;20048;-68
2022/04/22 02:47:31;;;;;;;17.15;11.18;;;9.10;99.90;;;;;;5053103;28;20049;-67
2022/04/22 02:49:58;;;;;;;20.23;11.63;;;9.10;99.90;;;;;;5069671;28;20491;-67
2022/04/22 02:52:25;;;;;;;18.33;11.15;;;9.10;99.90;;;;;;5071697;28;20045;-66
2022/04/22 02:54:52;;;;;;;18.30;12.32;;;9.10;99.90;;;;;;5055113;28;20056;-67
2022/04/22 02:57:19;;;;;;;21.17;10.65;;;9.20;99.90;;;;;;5069712;28;20483;-67
2022/04/22 02:59:46;;;;;;;19.35;11.02;;;9.20;99.90;;;;;;5071592;28;20063;-67
2022/04/22 03:02:13;;;;;;;25.45;13.98;;;9.20;99.90;;;;;;5070159;28;20044;-67
2022/04/22 03:04:40;;;;;;;19.48;12.48;;;9.20;99.90;;;;;;5071292;28;20123;-67
2022/04/22 03:07:07;;;;;;;20.02;12.85;;;9.20;99.90;;;;;;5071507;28;20483;-67
2022/04/22 03:09:34;;;;;;;21.25;13.70;;;9.30;99.90;;;;;;5071359;28;20049;-67
2022/04/22 03:12:01;;;;;;;24.13;14.40;;;9.30;99.90;;;;;;5072184;28;20048;-67
2022/04/22 03:14:29;;;;;;;17.95;11.82;;;9.30;99.90;;;;;;5071894;28;20053;-67
2022/04/22 03:16:56;;;;;;;23.10;12.68;;;9.30;99.90;;;;;;5071074;28;20049;-67
2022/04/22 03:19:23;;;;;;;23.67;11.48;;;9.20;99.90;;;;;;5069969;28;20051;-67
2022/04/22 03:21:50;;;;;;;24.67;11.90;;;9.30;99.90;;;;;;5070305;28;20475;-67
2022/04/22 03:24:16;;;;;;;20.15;12.18;;;9.30;99.90;;;;;;5071192;28;20070;-68
2022/04/22 03:26:43;;;;;;;13.95;10.38;;;9.20;99.90;;;;;;5070020;28;20048;-67
2022/04/22 03:29:10;;;;;;;20.58;11.38;;;9.20;99.90;;;;;;5070675;28;20545;-67
2022/04/22 03:31:37;;;;;;;22.33;10.73;;;9.20;99.90;;;;;;5069748;28;20052;-68
2022/04/22 03:34:04;;;;;;;19.60;11.88;;;9.20;99.90;;;;;;5070403;28;20150;-68
2022/04/22 03:36:31;;;;;;;21.45;13.05;;;9.10;99.90;;;;;;5070838;28;20044;-67
2022/04/22 03:38:58;;;;;;;21.95;11.13;;;9.10;99.90;;;;;;5071306;28;20105;-68
2022/04/22 03:41:24;;;;;;;17.65;11.25;;;9.10;99.90;;;;;;5071696;28;20060;-68
2022/04/22 03:43:51;;;;;;;15.73;11.07;;;9.10;99.90;;;;;;5069736;28;20051;-67
2022/04/22 03:46:18;;;;;;;18.33;10.48;;;9.10;99.90;;;;;;5071160;28;20439;-67
2022/04/22 03:48:46;;;;;;;16.77;10.93;;;9.10;99.90;;;;;;5070108;28;20838;-67
2022/04/22 03:51:15;;;;;;;19.35;11.52;;;9.10;99.90;;;;;;5069924;28;20083;-67
2022/04/22 03:53:42;;;;;;;21.83;10.68;;;9.20;99.90;;;;;;5071992;28;20086;-67
2022/04/22 03:58:54;;;;;;;19.60;11.25;;;9.20;99.90;;;;;;5074825;28;20051;-68
2022/04/22 04:01:21;;;;;;;16.90;10.40;;;9.20;99.90;;;;;;5074237;28;20049;-68
2022/04/22 04:03:48;;;;;;;20.15;11.15;;;9.20;99.90;;;;;;5072936;28;20450;-68
2022/04/22 04:06:15;;;;;;;20.55;11.55;;;9.20;99.90;;;;;;5073786;28;20476;-68
2022/04/22 04:15:57;;;;;;;18.25;11.40;;;9.20;99.90;;;;;;5073180;28;20040;-68
2022/04/22 04:16:59;;;;;;;16.23;10.85;;;9.40;99.90;;;;;;5074472;28;20044;-67
2022/04/22 04:24:57;;;;;;;21.02;12.70;;;9.40;99.90;;;;;;5073224;28;20048;-67
2022/04/22 04:27:24;;;;;;;15.43;10.80;;;9.50;99.90;;;;;;5074695;28;20040;-67
2022/04/22 04:29:51;;;;;;;18.00;11.77;;;9.50;99.90;;;;;;5072397;28;20051;-67
2022/04/22 04:32:18;;;;;;;20.77;12.27;;;9.40;99.90;;;;;;5057592;28;20058;-67
2022/04/22 04:34:45;;;;;;;23.00;12.00;;;9.40;99.90;;;;;;5073981;28;20060;-68
2022/04/22 04:37:15;;;;;;;24.15;11.25;;;9.40;99.90;;;;;;5073716;28;20056;-68
2022/04/22 04:39:42;;;;;;;22.15;12.88;;;9.50;99.90;;;;;;5073382;28;20049;-68
2022/04/22 04:42:09;;;;;;;18.75;11.32;;;9.50;99.90;;;;;;5073672;28;20040;-68
2022/04/22 04:44:37;;;;;;;25.23;13.02;;;9.50;99.90;;;;;;5072414;28;20053;-68
2022/04/22 04:47:05;;;;;;;20.08;11.88;;;9.50;99.90;;;;;;5070969;28;20453;-67
2022/04/22 04:49:34;;;;;;;16.85;11.68;;;9.50;99.90;;;;;;5070070;28;20150;-66
2022/04/22 04:52:00;;;;;;;17.17;11.48;;;9.50;99.90;;;;;;5074801;28;20041;-67
2022/04/22 04:54:27;;;;;;;25.60;12.48;;;9.50;99.90;;;;;;5072087;28;20060;-68
2022/04/22 04:56:54;;;;;;;23.73;12.00;;;9.60;99.90;;;;;;5069445;28;20041;-67
2022/04/22 04:59:22;;;;;;;23.48;12.18;;;9.50;99.90;;;;;;5067539;28;20051;-67
2022/04/22 05:01:49;;;;;;;22.90;13.20;;;9.60;99.90;;;;;;5065642;28;20053;-68
2022/04/22 05:04:16;;;;;;;21.45;12.18;;;9.60;99.90;;;;;;5070616;28;20518;-69
2022/04/22 05:06:43;;;;;;;18.35;12.00;;;9.60;99.90;;;;;;5070947;28;20078;-68
2022/04/22 05:09:09;;;;;;;21.13;11.80;;;9.70;99.90;;;;;;5073083;28;20049;-68
2022/04/22 05:11:37;;;;;;;22.00;12.40;;;9.70;99.90;;;;;;5073237;28;20049;-68
2022/04/22 05:14:04;;;;;;;19.02;13.07;;;9.70;99.90;;;;;;5071691;28;20041;-68
2022/04/22 05:16:31;;;;;;;24.92;12.32;;;9.70;99.90;;;;;;5070500;28;20052;-68
2022/04/22 05:18:58;;;;;;;23.13;13.80;;;9.70;99.90;;;;;;5071800;28;20080;-68
2022/04/22 05:21:26;;;;;;;24.13;12.32;;;9.70;99.90;;;;;;5073225;28;20381;-69
2022/04/22 05:23:54;;;;;;;27.35;14.63;;;9.80;99.90;;;;;;5071983;28;20060;-68
2022/04/22 05:26:23;;;;;;;23.95;14.18;;;9.80;99.90;;;;;;5072395;28;20407;-68
2022/04/22 05:28:50;;;;;;;25.00;13.25;;;9.80;99.90;;;;;;5072243;28;20056;-67
2022/04/22 05:34:02;;;;;;;26.80;13.18;;;9.90;99.90;;;;;;5072564;28;20041;-68
2022/04/22 05:36:30;;;;;;;22.60;12.93;;;9.90;99.90;;;;;;5073452;28;20044;-68
2022/04/22 05:38:57;;;;;;;21.25;13.13;;;9.90;99.90;;;;;;5072028;28;20506;-68
2022/04/22 05:41:24;;;;;;;25.17;13.85;;;10.00;99.90;;;;;;5072874;28;20052;-68
2022/04/22 05:43:51;;;;;;;27.48;15.15;;;10.00;99.90;;;;;;5072619;28;20067;-68
2022/04/22 05:46:18;;;;;;;22.38;14.27;;;10.00;99.90;;;;;;5071840;28;20044;-69
2022/04/22 05:48:45;;;;;;;22.38;14.18;;;10.00;99.90;;;;;;5072623;28;20052;-68
2022/04/22 05:51:12;;;;;;;24.80;14.45;;;10.00;99.90;;;;;;5071452;28;20044;-68
2022/04/22 05:53:44;;;;;;;23.88;14.35;;;10.10;99.90;;;;;;5071294;28;20426;-67
2022/04/22 05:56:11;;;;;;;34.08;14.95;;;10.20;99.90;;;;;;5071957;28;20072;-67
2022/04/22 05:58:38;;;;;;;24.45;15.23;;;10.20;99.90;;;;;;5070921;28;20110;-67
2022/04/22 06:01:06;;;;;;;27.73;15.55;;;10.20;99.90;;;;;;5071105;28;20049;-68
2022/04/22 06:03:33;;;;;;;22.77;14.40;;;10.20;99.90;;;;;;5071242;28;20051;-68
2022/04/22 06:06:00;;;;;;;22.40;14.40;;;10.30;99.90;;;;;;5057671;28;20049;-67
2022/04/22 06:11:12;;;;;;;25.88;16.38;;;10.30;99.90;;;;;;5072336;28;20047;-66
2022/04/22 06:13:38;;;;;;;26.33;16.13;;;10.40;99.90;;;;;;5072505;28;20053;-68
2022/04/22 06:16:10;;;;;;;34.30;16.60;;;10.40;99.90;;;;;;5070816;28;20048;-75
2022/04/22 06:18:37;;;;;;;28.52;16.23;;;10.50;99.90;;;;;;5070232;28;20288;-78
2022/04/22 06:21:04;;;;;;;24.98;14.75;;;10.60;99.90;;;;;;5070254;28;20051;-75
2022/04/22 06:23:31;;;;;;;24.27;15.02;;;10.70;99.90;;;;;;5070571;28;20474;-72
2022/04/22 06:25:58;;;;;;;44.63;30.98;;;10.80;99.90;;;;;;5072541;28;20479;-69
2022/04/22 06:28:25;;;;;;;36.20;21.65;;;10.80;99.90;;;;;;5070867;28;20045;-68
2022/04/22 06:30:53;;;;;;;26.20;15.65;;;10.80;99.90;;;;;;5071742;28;20463;-65
2022/04/22 06:33:20;;;;;;;23.02;15.48;;;10.80;99.90;;;;;;5071902;28;20060;-65
2022/04/22 06:35:47;;;;;;;26.30;16.35;;;10.90;99.90;;;;;;5071889;28;20047;-66
2022/04/22 06:38:15;;;;;;;23.55;16.85;;;10.90;99.90;;;;;;5072344;28;20047;-66
2022/04/22 06:46:18;;;;;;;25.27;15.57;;;11.10;99.90;;;;;;5071751;28;20048;-65
2022/04/22 06:48:46;;;;;;;23.92;16.05;;;11.00;99.90;;;;;;5071972;28;20067;-67
2022/04/22 06:51:13;;;;;;;26.30;15.90;;;11.00;99.90;;;;;;5070508;28;20049;-66
2022/04/22 06:53:41;;;;;;;22.40;15.65;;;11.00;99.90;;;;;;5069461;28;20095;-66
2022/04/22 06:56:08;;;;;;;33.88;17.95;;;11.00;99.90;;;;;;5071797;28;20055;-65
2022/04/22 06:58:38;;;;;;;33.13;15.90;;;11.00;99.90;;;;;;5072708;28;20051;-65
2022/04/22 07:01:07;;;;;;;27.30;16.92;;;11.00;99.90;;;;;;5069927;28;20113;-66
2022/04/22 07:03:54;;;;;;;31.42;15.48;;;11.00;99.90;;;;;;5052555;28;20076;-66
2022/04/22 07:06:21;;;;;;;24.02;14.82;;;11.00;99.90;;;;;;5071299;28;20048;-65
2022/04/22 07:08:49;;;;;;;39.33;17.20;;;11.00;99.90;;;;;;5071623;28;20068;-65
2022/04/22 07:11:27;;;;;;;35.55;15.85;;;11.00;99.90;;;;;;5072082;28;20494;-65
2022/04/22 07:13:55;;;;;;;36.53;17.85;;;11.00;99.90;;;;;;5071289;28;20067;-65
2022/04/22 07:16:23;;;;;;;37.10;17.52;;;11.10;99.90;;;;;;5069267;28;20095;-65
2022/04/22 07:18:51;;;;;;;47.97;18.05;;;11.10;99.90;;;;;;5062647;28;20048;-64
2022/04/22 07:21:19;;;;;;;28.60;16.98;;;11.20;99.90;;;;;;5047603;28;20484;-66
2022/04/22 07:23:47;;;;;;;28.63;17.02;;;11.20;99.90;;;;;;5071736;28;20040;-64
2022/04/22 07:26:14;;;;;;;33.15;16.52;;;11.30;99.90;;;;;;5071015;28;20060;-65
2022/04/22 07:28:41;;;;;;;26.88;15.02;;;11.30;99.90;;;;;;5059322;28;20480;-73
2022/04/22 07:31:09;;;;;;;25.40;13.52;;;11.40;99.90;;;;;;5070376;28;20041;-76
2022/04/22 07:33:36;;;;;;;26.20;15.25;;;11.40;99.90;;;;;;5056210;28;20040;-70
2022/04/22 07:36:03;;;;;;;27.05;15.95;;;11.50;99.90;;;;;;5073836;28;20044;-70
2022/04/22 07:38:30;;;;;;;22.35;14.88;;;11.50;99.90;;;;;;5065963;28;20414;-69
2022/04/22 07:40:57;;;;;;;22.20;15.77;;;11.60;99.90;;;;;;5073465;28;20049;-69
2022/04/22 07:49:12;;;;;;;29.58;16.42;;;11.90;99.90;;;;;;5068816;28;20104;-70
2022/04/22 07:51:42;;;;;;;25.23;15.88;;;11.90;99.90;;;;;;5072029;28;20076;-68
2022/04/22 07:54:09;;;;;;;23.08;14.43;;;11.90;99.90;;;;;;5055362;28;20098;-71
2022/04/22 07:56:36;;;;;;;21.10;14.98;;;12.00;99.90;;;;;;5054799;28;20063;-72
2022/04/22 07:59:03;;;;;;;21.10;13.77;;;12.10;99.90;;;;;;5070650;28;20041;-74
2022/04/22 08:01:30;;;;;;;23.25;14.55;;;12.10;99.90;;;;;;5073498;28;20048;-72
2022/04/22 08:03:59;;;;;;;22.05;13.95;;;12.10;99.90;;;;;;5073972;28;20037;-72
2022/04/22 08:06:26;;;;;;;18.13;13.63;;;12.20;99.90;;;;;;5071996;28;20049;-72
2022/04/22 08:08:53;;;;;;;22.80;13.43;;;12.20;99.90;;;;;;5071553;28;20054;-71
2022/04/22 08:11:20;;;;;;;22.27;14.45;;;12.30;99.90;;;;;;5074120;28;20059;-74
2022/04/22 08:13:47;;;;;;;22.92;12.93;;;12.40;99.90;;;;;;5071217;28;20048;-69
2022/04/22 08:16:14;;;;;;;22.50;12.93;;;12.40;99.90;;;;;;5073282;28;20085;-69
2022/04/22 08:18:41;;;;;;;19.73;14.25;;;12.40;99.90;;;;;;5053157;28;20051;-69
2022/04/22 08:21:09;;;;;;;20.88;13.25;;;12.50;99.90;;;;;;5069133;28;20131;-70
2022/04/22 08:23:36;;;;;;;16.20;12.52;;;12.50;99.90;;;;;;5070163;28;20053;-69
2022/04/22 08:26:04;;;;;;;29.95;24.63;;;12.60;99.90;;;;;;5074401;28;20079;-69
2022/04/22 08:28:31;;;;;;;20.95;14.60;;;12.60;99.90;;;;;;5056448;28;20445;-70
2022/04/22 08:30:58;;;;;;;21.88;13.07;;;12.60;99.90;;;;;;5074351;28;20071;-72
2022/04/22 08:33:26;;;;;;;17.67;11.95;;;12.60;99.90;;;;;;5069716;28;20048;-72
2022/04/22 08:35:53;;;;;;;19.83;13.05;;;12.50;99.90;;;;;;5071149;28;20131;-73
2022/04/22 08:38:20;;;;;;;19.92;13.00;;;12.60;99.90;;;;;;5072315;28;20041;-72
2022/04/22 08:40:48;;;;;;;16.00;12.65;;;12.50;99.90;;;;;;5073165;28;20049;-72
2022/04/22 08:43:15;;;;;;;23.27;13.77;;;12.60;99.90;;;;;;5055811;28;20051;-73
2022/04/22 08:45:42;;;;;;;18.85;13.93;;;12.70;99.90;;;;;;5062812;28;20049;-73
2022/04/22 08:50:55;;;;;;;21.15;13.23;;;12.70;99.90;;;;;;5072268;28;20051;-74
2022/04/22 08:53:23;;;;;;;17.75;12.65;;;12.90;99.90;;;;;;5071878;28;20055;-68
2022/04/22 08:55:57;;;;;;;21.17;13.10;;;13.00;99.90;;;;;;5073037;28;20044;-70
2022/04/22 08:58:26;;;;;;;19.58;12.63;;;13.10;99.90;;;;;;5072363;28;20078;-69
2022/04/22 09:00:53;;;;;;;17.35;12.52;;;13.20;99.90;;;;;;5056963;28;20055;-71
2022/04/22 09:03:20;;;;;;;17.17;11.80;;;13.10;99.90;;;;;;5036917;28;20407;-75
2022/04/22 09:05:47;;;;;;;18.95;12.80;;;13.20;99.90;;;;;;5061363;28;20040;-74
2022/04/22 09:08:14;;;;;;;16.15;11.35;;;13.20;99.90;;;;;;5088401;28;20049;-70
2022/04/22 09:10:42;;;;;;;21.90;12.57;;;13.20;99.90;;;;;;5055722;28;20044;-77
2022/04/22 09:13:10;;;;;;;15.13;11.77;;;13.30;99.90;;;;;;5072295;28;20128;-75
2022/04/22 09:15:40;;;;;;;17.85;11.15;;;13.10;99.90;;;;;;5072649;28;20123;-71
2022/04/22 09:18:27;;;;;;;16.98;11.63;;;13.10;99.90;;;;;;5073937;28;20064;-70
2022/04/22 09:21:02;;;;;;;14.65;11.55;;;13.10;99.90;;;;;;5072087;28;20057;-70
2022/04/22 09:23:34;;;;;;;19.38;12.07;;;13.00;99.90;;;;;;5071954;28;20084;-71
2022/04/22 09:26:03;;;;;;;28.88;11.55;;;13.00;99.90;;;;;;5062778;28;20044;-68
2022/04/22 09:28:30;;;;;;;18.00;11.85;;;12.90;99.90;;;;;;5072065;28;20037;-73
2022/04/22 09:31:01;;;;;;;17.65;11.27;;;12.90;99.90;;;;;;5071402;28;20040;-75
2022/04/22 09:33:44;;;;;;;20.98;12.02;;;13.00;99.90;;;;;;5071477;28;20060;-71
2022/04/22 09:44:52;;;;;;;20.95;11.20;;;13.00;99.90;;;;;;5060458;28;20052;-72
2022/04/22 09:47:20;;;;;;;20.30;11.45;;;13.00;99.90;;;;;;5070579;28;20040;-75
2022/04/22 09:49:47;;;;;;;17.85;11.70;;;13.10;99.90;;;;;;5071169;28;20048;-72
2022/04/22 09:52:13;;;;;;;16.88;10.30;;;13.10;99.90;;;;;;5071408;28;20472;-73
2022/04/22 09:54:41;;;;;;;17.42;10.57;;;13.20;99.90;;;;;;5070289;28;20040;-69
2022/04/22 09:57:52;;;;;;;14.70;11.40;;;13.30;99.90;;;;;;5071420;28;20548;-75
2022/04/22 10:00:20;;;;;;;16.52;11.30;;;13.70;99.90;;;;;;5072358;28;20048;-71
2022/04/22 10:02:56;;;;;;;19.85;10.60;;;13.90;99.90;;;;;;5070879;28;20488;-70
2022/04/22 10:05:24;;;;;;;17.40;10.52;;;14.10;99.90;;;;;;5072148;28;20266;-72
2022/04/22 10:07:55;;;;;;;16.42;9.07;;;14.20;99.90;;;;;;5072119;28;20055;-62
2022/04/22 10:10:40;;;;;;;22.20;16.42;;;14.30;99.90;;;;;;5070056;28;20047;-69
2022/04/22 10:13:08;;;;;;;42.58;27.50;;;14.20;99.90;;;;;;5070248;28;20481;-70
2022/04/22 10:15:37;;;;;;;17.45;12.00;;;14.40;99.90;;;;;;5070998;28;20131;-70
2022/04/22 10:18:05;;;;;;;12.93;10.02;;;14.60;99.90;;;;;;5054669;28;20403;-69
2022/04/22 10:20:32;;;;;;;14.02;10.07;;;14.70;99.90;;;;;;5071980;28;20446;-70
2022/04/22 10:22:59;;;;;;;14.98;10.18;;;14.70;99.90;;;;;;5034107;28;20135;-77
2022/04/22 10:25:29;;;;;;;14.18;10.57;;;14.70;99.90;;;;;;5064474;28;20041;-70
2022/04/22 10:28:00;;;;;;;12.88;10.25;;;14.70;99.90;;;;;;5070493;28;20044;-77
2022/04/22 10:30:28;;;;;;;17.55;10.52;;;14.90;99.90;;;;;;5026984;28;20052;-74
2022/04/22 10:32:56;;;;;;;14.43;10.18;;;14.80;99.90;;;;;;5067243;28;20048;-78
2022/04/22 10:35:23;;;;;;;14.40;9.88;;;14.80;99.90;;;;;;5070769;28;20474;-70
2022/04/22 10:37:52;;;;;;;15.50;10.98;;;14.80;99.90;;;;;;5069573;28;21498;-79
2022/04/22 10:40:20;;;;;;;13.27;9.80;;;14.90;99.90;;;;;;5071728;28;20086;-67
2022/04/22 10:42:48;;;;;;;12.25;9.15;;;14.80;99.90;;;;;;5086712;28;20049;-72
2022/04/22 10:48:21;;;;;;;18.30;10.02;;;14.60;99.90;;;;;;5070150;28;20045;-71
2022/04/22 10:51:00;;;;;;;11.18;8.88;;;14.50;99.90;;;;;;5070731;28;20072;-75
2022/04/22 10:53:36;;;;;;;17.88;10.65;;;14.30;99.90;;;;;;5070139;28;20051;-73
2022/04/22 10:56:25;;;;;;;13.85;10.25;;;14.20;99.90;;;;;;5070423;28;20052;-75
2022/04/22 10:59:20;;;;;;;12.50;9.15;;;14.10;99.90;;;;;;5085342;28;20040;-72
2022/04/22 11:01:48;;;;;;;13.20;9.65;;;14.10;99.90;;;;;;5068237;28;20048;-78
2022/04/22 11:04:24;;;;;;;16.33;9.13;;;13.90;99.90;;;;;;5052008;28;20484;-74
2022/04/22 11:06:51;;;;;;;14.65;9.50;;;14.00;99.90;;;;;;5069105;28;20048;-71
2022/04/22 11:09:28;;;;;;;15.57;11.02;;;14.00;99.90;;;;;;5071354;28;20045;-69
2022/04/22 11:11:56;;;;;;;17.58;10.07;;;14.00;99.90;;;;;;5068028;28;20041;-76
2022/04/22 11:14:26;;;;;;;15.93;8.25;;;13.90;99.90;;;;;;5069562;28;20056;-77
2022/04/22 11:16:54;;;;;;;11.10;7.53;;;13.80;99.90;;;;;;5069486;28;20048;-70
2022/04/22 11:19:24;;;;;;;25.50;16.50;;;13.90;99.90;;;;;;5069853;28;20127;-73
2022/04/22 11:21:55;;;;;;;16.50;10.05;;;14.00;99.90;;;;;;5069181;28;20044;-78
2022/04/22 11:24:27;;;;;;;13.50;8.02;;;14.10;99.90;;;;;;5069412;28;20055;-70
2022/04/22 11:27:08;;;;;;;14.50;8.70;;;14.10;99.90;;;;;;5070058;28;20479;-70
2022/04/22 11:29:35;;;;;;;12.65;7.97;;;14.10;99.90;;;;;;5070907;28;20044;-66
2022/04/22 11:32:07;;;;;;;13.43;8.15;;;14.10;99.90;;;;;;5069055;28;20066;-70
2022/04/22 11:34:46;;;;;;;11.35;8.07;;;14.10;99.90;;;;;;5070084;28;20091;-64
2022/04/22 11:37:17;;;;;;;9.20;7.15;;;14.10;99.90;;;;;;5072116;28;20055;-63
2022/04/22 11:39:48;;;;;;;11.80;7.35;;;14.20;98.50;;;;;;5071231;28;20052;-74
2022/04/22 11:42:17;;;;;;;20.40;8.30;;;14.10;96.90;;;;;;5070049;28;20051;-64
2022/04/22 11:45:02;;;;;;;11.27;7.85;;;14.10;99.10;;;;;;5070382;28;20083;-67
2022/04/22 11:47:29;;;;;;;12.80;8.30;;;14.40;99.90;;;;;;5067235;28;20084;-62
2022/04/22 11:49:56;;;;;;;13.18;8.65;;;14.40;99.90;;;;;;5070021;28;20041;-63
2022/04/22 11:52:23;;;;;;;13.93;7.85;;;14.50;99.30;;;;;;5086323;28;20052;-64
2022/04/22 11:55:01;;;;;;;17.10;9.55;;;14.40;99.90;;;;;;5084483;28;20072;-66
2022/04/22 11:57:37;;;;;;;12.88;8.88;;;14.50;99.60;;;;;;5071071;28;20052;-66
2022/04/22 12:05:46;;;;;;;12.00;8.48;;;14.60;99.90;;;;;;5070239;28;20048;-73
2022/04/22 12:08:15;;;;;;;16.95;10.23;;;14.70;99.90;;;;;;5087259;28;20047;-79
2022/04/22 12:10:48;;;;;;;14.05;9.75;;;14.90;99.90;;;;;;5072268;28;20056;-76
2022/04/22 12:13:16;;;;;;;23.08;9.68;;;15.10;98.90;;;;;;5053319;28;20484;-81
2022/04/22 12:15:46;;;;;;;14.40;9.07;;;15.40;98.00;;;;;;5073782;28;20063;-75
2022/04/22 12:18:36;;;;;;;18.10;9.50;;;15.70;94.80;;;;;;5074435;28;20546;-76
2022/04/22 12:21:06;;;;;;;37.45;11.23;;;15.60;93.80;;;;;;5074667;28;20060;-78
2022/04/22 12:23:40;;;;;;;24.30;10.98;;;15.40;94.40;;;;;;5076312;28;20049;-79
2022/04/22 12:26:20;;;;;;;14.00;9.00;;;15.20;94.40;;;;;;5075087;28;20467;-77
2022/04/22 12:29:09;;;;;;;15.50;10.02;;;15.20;94.50;;;;;;5074568;28;20052;-78
2022/04/22 12:31:40;;;;;;;17.52;10.20;;;15.30;93.80;;;;;;5074845;28;20044;-80
2022/04/22 12:34:09;;;;;;;15.32;9.30;;;15.40;94.00;;;;;;5074328;28;20048;-79
2022/04/22 12:36:37;;;;;;;16.48;8.90;;;15.50;94.20;;;;;;5074738;28;20060;-81
2022/04/22 12:39:11;;;;;;;14.90;9.57;;;15.60;95.00;;;;;;5074026;28;20127;-79
2022/04/22 12:41:45;;;;;;;21.27;12.95;;;15.80;95.10;;;;;;5074029;28;20052;-80
2022/04/22 12:44:13;;;;;;;17.17;11.45;;;15.80;94.60;;;;;;5073983;28;20056;-70
2022/04/22 12:52:23;;;;;;;17.60;10.07;;;15.50;95.70;;;;;;5074037;28;20068;-77
2022/04/22 12:54:51;;;;;;;12.90;9.20;;;15.50;95.10;;;;;;5072617;28;20495;-81
2022/04/22 12:57:27;;;;;;;16.98;11.02;;;15.40;96.30;;;;;;5074297;28;20048;-79
2022/04/22 12:59:55;;;;;;;16.92;10.50;;;15.50;98.40;;;;;;5056370;28;20059;-69
2022/04/22 13:02:29;;;;;;;19.52;9.73;;;15.60;98.30;;;;;;5072409;28;20156;-67
2022/04/22 13:05:00;;;;;;;14.93;9.73;;;15.50;97.30;;;;;;5073393;28;20044;-69
2022/04/22 13:07:44;;;;;;;18.08;10.50;;;15.50;98.60;;;;;;5069717;28;20045;-75
2022/04/22 13:10:15;;;;;;;22.65;10.65;;;15.40;98.80;;;;;;5063998;28;20055;-70
2022/04/22 13:12:43;;;;;;;13.32;9.88;;;15.20;99.20;;;;;;5056709;28;20044;-65
2022/04/22 13:15:17;;;;;;;22.27;11.38;;;15.20;99.90;;;;;;5071200;28;20056;-70
2022/04/22 13:17:53;;;;;;;23.88;13.30;;;15.10;99.90;;;;;;5066689;28;20049;-69
2022/04/22 13:20:21;;;;;;;16.30;10.65;;;15.10;99.90;;;;;;5051609;28;20052;-67
2022/04/22 13:22:48;;;;;;;15.23;8.98;;;15.10;99.90;;;;;;5082181;28;20055;-76
2022/04/22 13:25:17;;;;;;;17.52;9.35;;;15.20;99.90;;;;;;5067802;28;20077;-66
2022/04/22 13:27:44;;;;;;;;;;;15.30;99.90;;;;;;5085842;28;20049;-69
2022/04/22 13:30:13;;;;;;;15.52;9.25;;;15.30;99.90;;;;;;5073793;28;19920;-68
2022/04/22 13:32:41;;;;;;;14.48;9.77;;;15.40;99.90;;;;;;5070102;28;20522;-69
2022/04/22 13:35:10;;;;;;;18.20;10.20;;;15.30;99.90;;;;;;5072100;28;20063;-69
2022/04/22 13:37:37;;;;;;;;;;;15.20;99.90;;;;;;5071301;28;20484;-68
2022/04/22 13:40:05;;;;;;;22.30;10.60;;;15.30;99.90;;;;;;5072677;28;19921;-67
2022/04/22 13:42:32;;;;;;;18.08;10.50;;;15.40;99.90;;;;;;5069534;28;20052;-68
2022/04/22 13:53:34;;;;;;;14.98;10.32;;;15.50;99.90;;;;;;5029416;28;20049;-72
2022/04/22 13:56:01;;;;;;;24.08;11.52;;;15.40;99.90;;;;;;5054175;28;20051;-69
2022/04/22 13:58:32;;;;;;;21.50;11.77;;;15.40;99.90;;;;;;5068998;28;20056;-71
2022/04/22 14:01:01;;;;;;;15.50;10.10;;;15.50;99.90;;;;;;5071755;28;20071;-69
2022/04/22 14:03:29;;;;;;;18.77;11.60;;;15.60;99.90;;;;;;5070112;28;20044;-72
2022/04/22 14:05:56;;;;;;;15.00;10.18;;;15.60;99.90;;;;;;5070381;28;20049;-70